You are not logged in, Click here to log in
関西国際空港 KIX / RJBB 日本大阪灣東南部的泉州近海離岸5公里的人工島
ICAO: RJBB Country: 日本大阪灣東南部的泉州近海離岸5公里的人工島
Latitude: 34.4341 Longitude: 135.243
Total Arrivals: 197 Total Departures: 184
Latest Arrival: CI156 (RCTP-RJBB)Tsai Ming. Chou Latest Departure: BR127 (RJBB-RCTP)CHU. CHUHAO
Scenery:
METAR : RJBB 190500Z 30007KT 9999 FEW030 BKN/// 09/M01 Q1027 NOSIG

関西国際空港 KIX

You are accessing this site from IP address 35.175.113.29. Virtual Airline. CMS by phpVMS.Website designed by Zumeweb and edited by Theo Bearman.
There is 0 User(s) Online: | and 1 Guest(s) Online.
All information on this site is for fight simulation purposes only. This site is for flight logging for pilots of Virtual Airline&模擬飛行論壇 FlySim only.